sensor_id;sensor_type;location;lat;lon;timestamp;P1;durP1;ratioP1;P2;durP2;ratioP2
6031;SDS011;3044;43.232;27.972;2023-05-06T00:00:41;4.00;;;2.10;;
6031;SDS011;3044;43.232;27.972;2023-05-06T00:03:08;3.67;;;2.63;;
6031;SDS011;3044;43.232;27.972;2023-05-06T00:05:35;6.23;;;2.97;;
6031;SDS011;3044;43.232;27.972;2023-05-06T00:08:03;3.10;;;2.47;;
6031;SDS011;3044;43.232;27.972;2023-05-06T00:10:32;2.43;;;2.23;;
6031;SDS011;3044;43.232;27.972;2023-05-06T00:12:59;4.80;;;2.37;;
6031;SDS011;3044;43.232;27.972;2023-05-06T00:15:26;3.00;;;2.30;;
6031;SDS011;3044;43.232;27.972;2023-05-06T00:17:53;4.17;;;2.60;;
6031;SDS011;3044;43.232;27.972;2023-05-06T00:20:20;3.70;;;2.50;;
6031;SDS011;3044;43.232;27.972;2023-05-06T00:22:47;2.73;;;2.53;;
6031;SDS011;3044;43.232;27.972;2023-05-06T00:25:14;3.27;;;2.97;;
6031;SDS011;3044;43.232;27.972;2023-05-06T00:27:43;2.77;;;2.57;;
6031;SDS011;3044;43.232;27.972;2023-05-06T00:30:10;2.97;;;2.60;;
6031;SDS011;3044;43.232;27.972;2023-05-06T00:32:38;2.67;;;2.57;;
6031;SDS011;3044;43.232;27.972;2023-05-06T00:35:05;4.23;;;2.60;;
6031;SDS011;3044;43.232;27.972;2023-05-06T00:37:33;2.73;;;2.53;;
6031;SDS011;3044;43.232;27.972;2023-05-06T00:40:00;2.80;;;2.40;;
6031;SDS011;3044;43.232;27.972;2023-05-06T00:42:28;13.43;;;2.47;;
6031;SDS011;3044;43.232;27.972;2023-05-06T00:44:56;5.43;;;2.40;;
6031;SDS011;3044;43.232;27.972;2023-05-06T00:47:23;3.40;;;2.63;;
6031;SDS011;3044;43.232;27.972;2023-05-06T00:49:51;2.73;;;2.53;;
6031;SDS011;3044;43.232;27.972;2023-05-06T00:52:18;3.07;;;2.73;;
6031;SDS011;3044;43.232;27.972;2023-05-06T00:54:45;2.80;;;2.60;;
6031;SDS011;3044;43.232;27.972;2023-05-06T00:57:13;2.47;;;2.30;;
6031;SDS011;3044;43.232;27.972;2023-05-06T00:59:40;4.07;;;2.53;;
6031;SDS011;3044;43.232;27.972;2023-05-06T01:02:09;5.00;;;2.53;;
6031;SDS011;3044;43.232;27.972;2023-05-06T01:04:36;2.87;;;2.50;;
6031;SDS011;3044;43.232;27.972;2023-05-06T01:07:07;3.13;;;2.57;;
6031;SDS011;3044;43.232;27.972;2023-05-06T01:09:44;2.33;;;2.13;;
6031;SDS011;3044;43.232;27.972;2023-05-06T01:12:23;3.27;;;2.53;;
6031;SDS011;3044;43.232;27.972;2023-05-06T01:14:56;2.70;;;2.37;;
6031;SDS011;3044;43.232;27.972;2023-05-06T01:17:32;3.67;;;1.87;;
6031;SDS011;3044;43.232;27.972;2023-05-06T01:20:02;2.73;;;2.17;;
6031;SDS011;3044;43.232;27.972;2023-05-06T01:22:35;5.33;;;2.60;;
6031;SDS011;3044;43.232;27.972;2023-05-06T01:25:04;3.63;;;2.23;;
6031;SDS011;3044;43.232;27.972;2023-05-06T01:27:32;3.70;;;2.63;;
6031;SDS011;3044;43.232;27.972;2023-05-06T01:29:59;3.10;;;2.40;;
6031;SDS011;3044;43.232;27.972;2023-05-06T01:32:31;7.23;;;2.50;;
6031;SDS011;3044;43.232;27.972;2023-05-06T01:35:05;3.03;;;2.13;;
6031;SDS011;3044;43.232;27.972;2023-05-06T01:37:43;4.40;;;2.93;;
6031;SDS011;3044;43.232;27.972;2023-05-06T01:40:15;2.53;;;2.33;;
6031;SDS011;3044;43.232;27.972;2023-05-06T01:42:44;3.60;;;2.10;;
6031;SDS011;3044;43.232;27.972;2023-05-06T01:45:13;4.20;;;2.30;;
6031;SDS011;3044;43.232;27.972;2023-05-06T01:47:41;3.63;;;2.87;;
6031;SDS011;3044;43.232;27.972;2023-05-06T01:50:11;3.60;;;3.10;;
6031;SDS011;3044;43.232;27.972;2023-05-06T01:52:39;3.97;;;2.73;;
6031;SDS011;3044;43.232;27.972;2023-05-06T01:55:06;5.93;;;3.00;;
6031;SDS011;3044;43.232;27.972;2023-05-06T01:57:35;2.63;;;2.43;;
6031;SDS011;3044;43.232;27.972;2023-05-06T02:00:03;3.73;;;3.40;;
6031;SDS011;3044;43.232;27.972;2023-05-06T02:02:30;8.03;;;3.03;;
6031;SDS011;3044;43.232;27.972;2023-05-06T02:04:57;4.53;;;3.37;;
6031;SDS011;3044;43.232;27.972;2023-05-06T02:07:24;5.13;;;3.37;;
6031;SDS011;3044;43.232;27.972;2023-05-06T02:09:52;6.43;;;3.37;;
6031;SDS011;3044;43.232;27.972;2023-05-06T02:12:19;5.47;;;2.77;;
6031;SDS011;3044;43.232;27.972;2023-05-06T02:14:47;5.83;;;3.67;;
6031;SDS011;3044;43.232;27.972;2023-05-06T02:17:14;3.90;;;3.50;;
6031;SDS011;3044;43.232;27.972;2023-05-06T02:19:41;8.80;;;3.37;;
6031;SDS011;3044;43.232;27.972;2023-05-06T02:22:08;6.73;;;3.10;;
6031;SDS011;3044;43.232;27.972;2023-05-06T02:24:35;10.43;;;3.40;;
6031;SDS011;3044;43.232;27.972;2023-05-06T02:27:03;4.23;;;3.90;;
6031;SDS011;3044;43.232;27.972;2023-05-06T02:29:30;5.20;;;3.90;;
6031;SDS011;3044;43.232;27.972;2023-05-06T02:31:59;4.07;;;3.17;;
6031;SDS011;3044;43.232;27.972;2023-05-06T02:34:26;8.10;;;4.80;;
6031;SDS011;3044;43.232;27.972;2023-05-06T02:36:53;4.60;;;3.97;;
6031;SDS011;3044;43.232;27.972;2023-05-06T02:39:21;10.83;;;4.30;;
6031;SDS011;3044;43.232;27.972;2023-05-06T02:41:48;22.57;;;5.60;;
6031;SDS011;3044;43.232;27.972;2023-05-06T02:44:15;7.17;;;5.20;;
6031;SDS011;3044;43.232;27.972;2023-05-06T02:46:42;10.20;;;5.53;;
6031;SDS011;3044;43.232;27.972;2023-05-06T02:49:11;7.70;;;5.00;;
6031;SDS011;3044;43.232;27.972;2023-05-06T02:51:38;10.37;;;4.13;;
6031;SDS011;3044;43.232;27.972;2023-05-06T02:54:05;9.00;;;4.83;;
6031;SDS011;3044;43.232;27.972;2023-05-06T02:56:32;13.57;;;4.70;;
6031;SDS011;3044;43.232;27.972;2023-05-06T02:58:59;4.53;;;4.10;;
6031;SDS011;3044;43.232;27.972;2023-05-06T03:01:26;4.93;;;3.80;;
6031;SDS011;3044;43.232;27.972;2023-05-06T03:03:53;6.27;;;4.43;;
6031;SDS011;3044;43.232;27.972;2023-05-06T03:06:22;11.17;;;4.17;;
6031;SDS011;3044;43.232;27.972;2023-05-06T03:08:49;8.23;;;4.50;;
6031;SDS011;3044;43.232;27.972;2023-05-06T03:11:16;6.77;;;4.53;;
6031;SDS011;3044;43.232;27.972;2023-05-06T03:13:43;8.73;;;4.30;;
6031;SDS011;3044;43.232;27.972;2023-05-06T03:16:11;4.10;;;3.70;;
6031;SDS011;3044;43.232;27.972;2023-05-06T03:18:38;4.47;;;3.83;;
6031;SDS011;3044;43.232;27.972;2023-05-06T03:21:06;7.57;;;4.50;;
6031;SDS011;3044;43.232;27.972;2023-05-06T03:23:34;9.50;;;4.60;;
6031;SDS011;3044;43.232;27.972;2023-05-06T03:26:01;5.97;;;4.47;;
6031;SDS011;3044;43.232;27.972;2023-05-06T03:28:28;6.33;;;4.20;;
6031;SDS011;3044;43.232;27.972;2023-05-06T03:30:56;10.47;;;5.13;;
6031;SDS011;3044;43.232;27.972;2023-05-06T03:33:23;7.60;;;4.37;;
6031;SDS011;3044;43.232;27.972;2023-05-06T03:35:50;13.03;;;4.80;;
6031;SDS011;3044;43.232;27.972;2023-05-06T03:38:17;8.10;;;4.97;;
6031;SDS011;3044;43.232;27.972;2023-05-06T03:40:46;4.77;;;4.10;;
6031;SDS011;3044;43.232;27.972;2023-05-06T03:43:13;8.80;;;4.13;;
6031;SDS011;3044;43.232;27.972;2023-05-06T03:45:41;6.30;;;4.20;;
6031;SDS011;3044;43.232;27.972;2023-05-06T03:48:08;7.63;;;3.97;;
6031;SDS011;3044;43.232;27.972;2023-05-06T03:50:35;6.33;;;4.17;;
6031;SDS011;3044;43.232;27.972;2023-05-06T03:53:03;4.17;;;3.70;;
6031;SDS011;3044;43.232;27.972;2023-05-06T03:55:30;7.00;;;3.90;;
6031;SDS011;3044;43.232;27.972;2023-05-06T03:57:59;4.73;;;3.73;;
6031;SDS011;3044;43.232;27.972;2023-05-06T04:00:26;7.43;;;4.13;;
6031;SDS011;3044;43.232;27.972;2023-05-06T04:02:53;4.77;;;4.07;;
6031;SDS011;3044;43.232;27.972;2023-05-06T04:05:20;5.67;;;3.40;;
6031;SDS011;3044;43.232;27.972;2023-05-06T04:07:47;8.03;;;3.80;;
6031;SDS011;3044;43.232;27.972;2023-05-06T04:10:14;4.63;;;3.80;;
6031;SDS011;3044;43.232;27.972;2023-05-06T04:12:41;4.30;;;4.00;;
6031;SDS011;3044;43.232;27.972;2023-05-06T04:15:10;11.67;;;3.47;;
6031;SDS011;3044;43.232;27.972;2023-05-06T04:17:38;7.07;;;3.97;;
6031;SDS011;3044;43.232;27.972;2023-05-06T04:20:05;3.67;;;3.27;;
6031;SDS011;3044;43.232;27.972;2023-05-06T04:22:35;9.13;;;3.50;;
6031;SDS011;3044;43.232;27.972;2023-05-06T04:25:02;4.63;;;4.00;;
6031;SDS011;3044;43.232;27.972;2023-05-06T04:27:30;11.53;;;3.80;;
6031;SDS011;3044;43.232;27.972;2023-05-06T04:29:57;6.60;;;4.63;;
6031;SDS011;3044;43.232;27.972;2023-05-06T04:32:26;4.40;;;4.00;;
6031;SDS011;3044;43.232;27.972;2023-05-06T04:34:53;4.20;;;3.87;;
6031;SDS011;3044;43.232;27.972;2023-05-06T04:37:21;4.80;;;4.30;;
6031;SDS011;3044;43.232;27.972;2023-05-06T04:39:48;6.53;;;4.00;;
6031;SDS011;3044;43.232;27.972;2023-05-06T04:42:15;5.23;;;3.40;;
6031;SDS011;3044;43.232;27.972;2023-05-06T04:44:42;6.97;;;4.40;;
6031;SDS011;3044;43.232;27.972;2023-05-06T04:47:09;4.60;;;3.33;;
6031;SDS011;3044;43.232;27.972;2023-05-06T04:49:38;4.60;;;3.53;;
6031;SDS011;3044;43.232;27.972;2023-05-06T04:52:05;10.20;;;3.47;;
6031;SDS011;3044;43.232;27.972;2023-05-06T04:54:32;11.07;;;3.73;;
6031;SDS011;3044;43.232;27.972;2023-05-06T04:56:59;4.37;;;3.90;;
6031;SDS011;3044;43.232;27.972;2023-05-06T04:59:27;6.33;;;3.37;;
6031;SDS011;3044;43.232;27.972;2023-05-06T05:01:54;4.00;;;3.70;;
6031;SDS011;3044;43.232;27.972;2023-05-06T05:04:21;6.63;;;3.87;;
6031;SDS011;3044;43.232;27.972;2023-05-06T05:06:50;5.73;;;3.63;;
6031;SDS011;3044;43.232;27.972;2023-05-06T05:09:17;7.57;;;3.27;;
6031;SDS011;3044;43.232;27.972;2023-05-06T05:11:44;7.73;;;3.40;;
6031;SDS011;3044;43.232;27.972;2023-05-06T05:14:11;4.40;;;3.23;;
6031;SDS011;3044;43.232;27.972;2023-05-06T05:16:38;11.47;;;3.57;;
6031;SDS011;3044;43.232;27.972;2023-05-06T05:19:05;5.53;;;3.70;;
6031;SDS011;3044;43.232;27.972;2023-05-06T05:21:33;6.80;;;3.57;;
6031;SDS011;3044;43.232;27.972;2023-05-06T05:24:01;6.30;;;4.00;;
6031;SDS011;3044;43.232;27.972;2023-05-06T05:26:29;5.27;;;3.70;;
6031;SDS011;3044;43.232;27.972;2023-05-06T05:28:56;5.50;;;3.47;;
6031;SDS011;3044;43.232;27.972;2023-05-06T05:31:23;4.73;;;3.20;;
6031;SDS011;3044;43.232;27.972;2023-05-06T05:33:50;7.97;;;3.57;;
6031;SDS011;3044;43.232;27.972;2023-05-06T05:36:17;3.63;;;3.30;;
6031;SDS011;3044;43.232;27.972;2023-05-06T05:38:45;5.27;;;2.90;;
6031;SDS011;3044;43.232;27.972;2023-05-06T05:41:14;5.40;;;3.03;;
6031;SDS011;3044;43.232;27.972;2023-05-06T05:43:41;7.53;;;3.73;;
6031;SDS011;3044;43.232;27.972;2023-05-06T05:46:08;13.23;;;4.57;;
6031;SDS011;3044;43.232;27.972;2023-05-06T05:48:35;6.30;;;3.10;;
6031;SDS011;3044;43.232;27.972;2023-05-06T05:51:03;8.03;;;3.57;;
6031;SDS011;3044;43.232;27.972;2023-05-06T05:53:31;7.93;;;3.23;;
6031;SDS011;3044;43.232;27.972;2023-05-06T05:55:58;10.03;;;3.80;;
6031;SDS011;3044;43.232;27.972;2023-05-06T05:58:26;5.20;;;3.07;;
6031;SDS011;3044;43.232;27.972;2023-05-06T06:00:53;7.30;;;3.57;;
6031;SDS011;3044;43.232;27.972;2023-05-06T06:03:21;4.40;;;3.83;;
6031;SDS011;3044;43.232;27.972;2023-05-06T06:05:48;11.40;;;3.50;;
6031;SDS011;3044;43.232;27.972;2023-05-06T06:08:17;8.23;;;3.33;;
6031;SDS011;3044;43.232;27.972;2023-05-06T06:10:44;11.13;;;3.73;;
6031;SDS011;3044;43.232;27.972;2023-05-06T06:13:11;7.07;;;3.60;;
6031;SDS011;3044;43.232;27.972;2023-05-06T06:15:39;10.17;;;3.03;;
6031;SDS011;3044;43.232;27.972;2023-05-06T06:18:07;3.37;;;3.10;;
6031;SDS011;3044;43.232;27.972;2023-05-06T06:20:35;5.83;;;3.33;;
6031;SDS011;3044;43.232;27.972;2023-05-06T06:23:02;4.73;;;3.03;;
6031;SDS011;3044;43.232;27.972;2023-05-06T06:25:30;3.70;;;3.40;;
6031;SDS011;3044;43.232;27.972;2023-05-06T06:27:57;15.83;;;3.90;;
6031;SDS011;3044;43.232;27.972;2023-05-06T06:30:24;2.83;;;2.63;;
6031;SDS011;3044;43.232;27.972;2023-05-06T06:32:52;9.13;;;3.17;;
6031;SDS011;3044;43.232;27.972;2023-05-06T06:35:20;7.23;;;3.77;;
6031;SDS011;3044;43.232;27.972;2023-05-06T06:37:48;10.93;;;3.30;;
6031;SDS011;3044;43.232;27.972;2023-05-06T06:40:15;4.80;;;3.70;;
6031;SDS011;3044;43.232;27.972;2023-05-06T06:42:42;10.53;;;2.80;;
6031;SDS011;3044;43.232;27.972;2023-05-06T06:45:10;5.40;;;2.97;;
6031;SDS011;3044;43.232;27.972;2023-05-06T06:47:38;10.83;;;2.90;;
6031;SDS011;3044;43.232;27.972;2023-05-06T06:50:08;4.70;;;3.63;;
6031;SDS011;3044;43.232;27.972;2023-05-06T06:52:35;3.23;;;2.70;;
6031;SDS011;3044;43.232;27.972;2023-05-06T06:55:03;4.37;;;2.90;;
6031;SDS011;3044;43.232;27.972;2023-05-06T06:57:30;4.87;;;3.07;;
6031;SDS011;3044;43.232;27.972;2023-05-06T06:59:58;13.20;;;3.23;;
6031;SDS011;3044;43.232;27.972;2023-05-06T07:02:25;3.67;;;3.37;;
6031;SDS011;3044;43.232;27.972;2023-05-06T07:04:52;5.43;;;3.17;;
6031;SDS011;3044;43.232;27.972;2023-05-06T07:07:20;7.90;;;3.23;;
6031;SDS011;3044;43.232;27.972;2023-05-06T07:09:47;5.40;;;3.13;;
6031;SDS011;3044;43.232;27.972;2023-05-06T07:12:15;3.80;;;3.03;;
6031;SDS011;3044;43.232;27.972;2023-05-06T07:14:42;7.43;;;3.23;;
6031;SDS011;3044;43.232;27.972;2023-05-06T07:17:09;4.17;;;3.20;;
6031;SDS011;3044;43.232;27.972;2023-05-06T07:19:36;4.53;;;3.17;;
6031;SDS011;3044;43.232;27.972;2023-05-06T07:22:03;5.93;;;3.13;;
6031;SDS011;3044;43.232;27.972;2023-05-06T07:24:32;6.30;;;3.60;;
6031;SDS011;3044;43.232;27.972;2023-05-06T07:26:59;9.33;;;3.80;;
6031;SDS011;3044;43.232;27.972;2023-05-06T07:29:26;6.23;;;2.80;;
6031;SDS011;3044;43.232;27.972;2023-05-06T07:31:53;6.13;;;3.27;;
6031;SDS011;3044;43.232;27.972;2023-05-06T07:34:21;4.93;;;2.77;;
6031;SDS011;3044;43.232;27.972;2023-05-06T07:36:48;2.43;;;2.23;;
6031;SDS011;3044;43.232;27.972;2023-05-06T07:39:15;7.63;;;3.73;;
6031;SDS011;3044;43.232;27.972;2023-05-06T07:41:43;11.93;;;3.07;;
6031;SDS011;3044;43.232;27.972;2023-05-06T07:44:11;6.87;;;3.03;;
6031;SDS011;3044;43.232;27.972;2023-05-06T07:46:38;7.70;;;3.10;;
6031;SDS011;3044;43.232;27.972;2023-05-06T07:49:05;8.13;;;3.10;;
6031;SDS011;3044;43.232;27.972;2023-05-06T07:51:32;9.27;;;3.37;;
6031;SDS011;3044;43.232;27.972;2023-05-06T07:54:00;13.07;;;4.03;;
6031;SDS011;3044;43.232;27.972;2023-05-06T07:56:27;4.67;;;3.37;;
6031;SDS011;3044;43.232;27.972;2023-05-06T07:58:55;8.83;;;3.63;;
6031;SDS011;3044;43.232;27.972;2023-05-06T08:01:23;4.73;;;3.13;;
6031;SDS011;3044;43.232;27.972;2023-05-06T08:03:50;7.03;;;2.97;;
6031;SDS011;3044;43.232;27.972;2023-05-06T08:06:17;6.13;;;3.33;;
6031;SDS011;3044;43.232;27.972;2023-05-06T08:08:45;4.97;;;3.67;;
6031;SDS011;3044;43.232;27.972;2023-05-06T08:11:12;5.77;;;3.73;;
6031;SDS011;3044;43.232;27.972;2023-05-06T08:13:39;4.23;;;3.20;;
6031;SDS011;3044;43.232;27.972;2023-05-06T08:16:07;3.40;;;3.10;;
6031;SDS011;3044;43.232;27.972;2023-05-06T08:18:35;3.70;;;3.40;;
6031;SDS011;3044;43.232;27.972;2023-05-06T08:21:02;5.43;;;3.13;;
6031;SDS011;3044;43.232;27.972;2023-05-06T08:23:29;7.00;;;4.00;;
6031;SDS011;3044;43.232;27.972;2023-05-06T08:25:57;6.43;;;3.17;;
6031;SDS011;3044;43.232;27.972;2023-05-06T08:28:24;4.00;;;3.47;;
6031;SDS011;3044;43.232;27.972;2023-05-06T08:30:53;9.07;;;3.27;;
6031;SDS011;3044;43.232;27.972;2023-05-06T08:33:21;7.77;;;3.20;;
6031;SDS011;3044;43.232;27.972;2023-05-06T08:35:49;14.50;;;3.20;;
6031;SDS011;3044;43.232;27.972;2023-05-06T08:38:16;4.23;;;3.40;;
6031;SDS011;3044;43.232;27.972;2023-05-06T08:40:43;5.50;;;3.30;;
6031;SDS011;3044;43.232;27.972;2023-05-06T08:43:13;6.80;;;3.10;;
6031;SDS011;3044;43.232;27.972;2023-05-06T08:45:44;3.70;;;3.17;;
6031;SDS011;3044;43.232;27.972;2023-05-06T08:48:11;8.87;;;4.13;;
6031;SDS011;3044;43.232;27.972;2023-05-06T08:50:41;7.50;;;3.77;;
6031;SDS011;3044;43.232;27.972;2023-05-06T08:53:09;10.20;;;3.77;;
6031;SDS011;3044;43.232;27.972;2023-05-06T08:55:37;13.13;;;3.97;;
6031;SDS011;3044;43.232;27.972;2023-05-06T08:58:06;13.70;;;5.20;;
6031;SDS011;3044;43.232;27.972;2023-05-06T09:00:35;3.57;;;3.23;;
6031;SDS011;3044;43.232;27.972;2023-05-06T09:03:02;9.50;;;2.40;;
6031;SDS011;3044;43.232;27.972;2023-05-06T09:05:30;14.53;;;3.90;;
6031;SDS011;3044;43.232;27.972;2023-05-06T09:07:58;5.07;;;3.67;;
6031;SDS011;3044;43.232;27.972;2023-05-06T09:10:29;4.80;;;3.40;;
6031;SDS011;3044;43.232;27.972;2023-05-06T09:12:57;6.80;;;3.60;;
6031;SDS011;3044;43.232;27.972;2023-05-06T09:15:24;8.53;;;3.97;;
6031;SDS011;3044;43.232;27.972;2023-05-06T09:17:53;11.73;;;3.33;;
6031;SDS011;3044;43.232;27.972;2023-05-06T09:20:21;14.10;;;3.60;;
6031;SDS011;3044;43.232;27.972;2023-05-06T09:22:48;3.67;;;3.30;;
6031;SDS011;3044;43.232;27.972;2023-05-06T09:25:17;5.60;;;3.07;;
6031;SDS011;3044;43.232;27.972;2023-05-06T09:27:44;15.37;;;3.43;;
6031;SDS011;3044;43.232;27.972;2023-05-06T09:30:12;12.70;;;3.90;;
6031;SDS011;3044;43.232;27.972;2023-05-06T09:32:39;6.40;;;3.17;;
6031;SDS011;3044;43.232;27.972;2023-05-06T09:35:07;7.33;;;2.90;;
6031;SDS011;3044;43.232;27.972;2023-05-06T09:37:35;7.37;;;3.60;;
6031;SDS011;3044;43.232;27.972;2023-05-06T09:40:02;10.40;;;3.13;;
6031;SDS011;3044;43.232;27.972;2023-05-06T09:42:32;9.43;;;3.10;;
6031;SDS011;3044;43.232;27.972;2023-05-06T09:45:00;6.17;;;3.33;;
6031;SDS011;3044;43.232;27.972;2023-05-06T09:47:28;9.70;;;3.37;;
6031;SDS011;3044;43.232;27.972;2023-05-06T09:49:59;7.83;;;3.80;;
6031;SDS011;3044;43.232;27.972;2023-05-06T09:52:26;6.53;;;3.40;;
6031;SDS011;3044;43.232;27.972;2023-05-06T09:54:54;5.30;;;3.87;;
6031;SDS011;3044;43.232;27.972;2023-05-06T09:57:22;10.73;;;3.20;;
6031;SDS011;3044;43.232;27.972;2023-05-06T09:59:51;7.13;;;3.10;;
6031;SDS011;3044;43.232;27.972;2023-05-06T10:02:21;4.70;;;3.50;;
6031;SDS011;3044;43.232;27.972;2023-05-06T10:04:49;3.40;;;3.10;;
6031;SDS011;3044;43.232;27.972;2023-05-06T10:07:18;10.83;;;2.90;;
6031;SDS011;3044;43.232;27.972;2023-05-06T10:09:48;14.10;;;3.50;;
6031;SDS011;3044;43.232;27.972;2023-05-06T10:12:16;7.80;;;2.67;;
6031;SDS011;3044;43.232;27.972;2023-05-06T10:14:45;9.13;;;2.83;;
6031;SDS011;3044;43.232;27.972;2023-05-06T10:17:14;5.90;;;2.90;;
6031;SDS011;3044;43.232;27.972;2023-05-06T10:19:44;6.40;;;3.10;;
6031;SDS011;3044;43.232;27.972;2023-05-06T10:22:14;4.10;;;3.10;;
6031;SDS011;3044;43.232;27.972;2023-05-06T10:24:50;5.57;;;3.20;;
6031;SDS011;3044;43.232;27.972;2023-05-06T10:27:21;5.60;;;3.53;;
6031;SDS011;3044;43.232;27.972;2023-05-06T10:29:50;8.40;;;3.37;;
6031;SDS011;3044;43.232;27.972;2023-05-06T10:32:21;11.50;;;3.03;;
6031;SDS011;3044;43.232;27.972;2023-05-06T10:34:52;11.63;;;3.00;;
6031;SDS011;3044;43.232;27.972;2023-05-06T10:37:21;3.53;;;3.20;;
6031;SDS011;3044;43.232;27.972;2023-05-06T10:39:50;11.43;;;3.50;;
6031;SDS011;3044;43.232;27.972;2023-05-06T10:42:19;3.63;;;3.17;;
6031;SDS011;3044;43.232;27.972;2023-05-06T10:44:58;10.23;;;3.67;;
6031;SDS011;3044;43.232;27.972;2023-05-06T10:47:27;11.40;;;3.40;;
6031;SDS011;3044;43.232;27.972;2023-05-06T10:52:49;9.27;;;3.63;;
6031;SDS011;3044;43.232;27.972;2023-05-06T10:55:23;6.07;;;3.80;;
6031;SDS011;3044;43.232;27.972;2023-05-06T10:57:53;8.07;;;3.10;;
6031;SDS011;3044;43.232;27.972;2023-05-06T11:00:21;12.30;;;3.63;;
6031;SDS011;3044;43.232;27.972;2023-05-06T11:02:59;7.90;;;3.47;;
6031;SDS011;3044;43.232;27.972;2023-05-06T11:05:27;9.57;;;3.60;;
6031;SDS011;3044;43.232;27.972;2023-05-06T11:08:05;7.77;;;3.53;;
6031;SDS011;3044;43.232;27.972;2023-05-06T11:10:36;5.97;;;3.20;;
6031;SDS011;3044;43.232;27.972;2023-05-06T11:13:19;6.70;;;3.50;;
6031;SDS011;3044;43.232;27.972;2023-05-06T11:15:49;3.30;;;3.00;;
6031;SDS011;3044;43.232;27.972;2023-05-06T11:24:05;7.77;;;3.13;;
6031;SDS011;3044;43.232;27.972;2023-05-06T11:26:33;6.30;;;3.90;;
6031;SDS011;3044;43.232;27.972;2023-05-06T11:29:00;11.57;;;2.90;;
6031;SDS011;3044;43.232;27.972;2023-05-06T11:31:29;9.23;;;3.67;;
6031;SDS011;3044;43.232;27.972;2023-05-06T11:34:08;5.03;;;2.80;;
6031;SDS011;3044;43.232;27.972;2023-05-06T11:36:44;13.50;;;3.07;;
6031;SDS011;3044;43.232;27.972;2023-05-06T11:39:12;4.33;;;3.63;;
6031;SDS011;3044;43.232;27.972;2023-05-06T11:41:40;6.87;;;3.60;;
6031;SDS011;3044;43.232;27.972;2023-05-06T11:44:07;5.63;;;3.40;;
6031;SDS011;3044;43.232;27.972;2023-05-06T11:46:36;5.80;;;2.90;;
6031;SDS011;3044;43.232;27.972;2023-05-06T11:49:03;14.57;;;3.43;;
6031;SDS011;3044;43.232;27.972;2023-05-06T11:51:32;7.53;;;3.10;;
6031;SDS011;3044;43.232;27.972;2023-05-06T11:54:03;8.20;;;3.13;;
6031;SDS011;3044;43.232;27.972;2023-05-06T11:56:43;11.93;;;3.60;;
6031;SDS011;3044;43.232;27.972;2023-05-06T11:59:14;5.10;;;3.23;;
6031;SDS011;3044;43.232;27.972;2023-05-06T12:01:43;5.83;;;3.60;;
6031;SDS011;3044;43.232;27.972;2023-05-06T12:04:11;5.03;;;3.83;;
6031;SDS011;3044;43.232;27.972;2023-05-06T12:06:40;6.90;;;3.60;;
6031;SDS011;3044;43.232;27.972;2023-05-06T12:09:09;7.60;;;4.37;;
6031;SDS011;3044;43.232;27.972;2023-05-06T12:11:38;12.37;;;3.47;;
6031;SDS011;3044;43.232;27.972;2023-05-06T12:14:06;4.53;;;3.40;;
6031;SDS011;3044;43.232;27.972;2023-05-06T12:16:35;4.77;;;3.53;;
6031;SDS011;3044;43.232;27.972;2023-05-06T12:19:03;14.77;;;3.73;;
6031;SDS011;3044;43.232;27.972;2023-05-06T12:21:31;4.80;;;3.70;;
6031;SDS011;3044;43.232;27.972;2023-05-06T12:23:59;7.27;;;4.10;;
6031;SDS011;3044;43.232;27.972;2023-05-06T12:26:27;6.83;;;3.73;;
6031;SDS011;3044;43.232;27.972;2023-05-06T12:29:05;8.33;;;4.00;;
6031;SDS011;3044;43.232;27.972;2023-05-06T12:31:34;12.40;;;4.07;;
6031;SDS011;3044;43.232;27.972;2023-05-06T12:34:02;11.27;;;4.40;;
6031;SDS011;3044;43.232;27.972;2023-05-06T12:36:29;6.13;;;3.83;;
6031;SDS011;3044;43.232;27.972;2023-05-06T12:38:58;12.97;;;4.27;;
6031;SDS011;3044;43.232;27.972;2023-05-06T12:41:37;9.00;;;4.30;;
6031;SDS011;3044;43.232;27.972;2023-05-06T12:46:59;7.10;;;3.80;;
6031;SDS011;3044;43.232;27.972;2023-05-06T12:49:27;9.40;;;3.60;;
6031;SDS011;3044;43.232;27.972;2023-05-06T12:52:09;20.40;;;3.70;;
6031;SDS011;3044;43.232;27.972;2023-05-06T12:54:37;10.60;;;4.10;;
6031;SDS011;3044;43.232;27.972;2023-05-06T12:57:04;4.60;;;3.33;;
6031;SDS011;3044;43.232;27.972;2023-05-06T12:59:32;7.47;;;3.70;;
6031;SDS011;3044;43.232;27.972;2023-05-06T13:02:00;9.37;;;3.90;;
6031;SDS011;3044;43.232;27.972;2023-05-06T13:04:27;5.30;;;3.83;;
6031;SDS011;3044;43.232;27.972;2023-05-06T13:06:55;9.03;;;3.47;;
6031;SDS011;3044;43.232;27.972;2023-05-06T13:09:22;4.80;;;3.50;;
6031;SDS011;3044;43.232;27.972;2023-05-06T13:11:51;15.60;;;4.00;;
6031;SDS011;3044;43.232;27.972;2023-05-06T13:14:19;13.87;;;3.80;;
6031;SDS011;3044;43.232;27.972;2023-05-06T13:16:46;7.03;;;4.43;;
6031;SDS011;3044;43.232;27.972;2023-05-06T13:19:14;3.87;;;3.40;;
6031;SDS011;3044;43.232;27.972;2023-05-06T13:21:41;9.60;;;3.53;;
6031;SDS011;3044;43.232;27.972;2023-05-06T13:24:10;7.97;;;3.50;;
6031;SDS011;3044;43.232;27.972;2023-05-06T13:26:37;5.17;;;4.30;;
6031;SDS011;3044;43.232;27.972;2023-05-06T13:29:05;6.40;;;3.63;;
6031;SDS011;3044;43.232;27.972;2023-05-06T13:31:33;16.40;;;3.87;;
6031;SDS011;3044;43.232;27.972;2023-05-06T13:34:00;7.70;;;3.77;;
6031;SDS011;3044;43.232;27.972;2023-05-06T13:36:27;12.93;;;4.20;;
6031;SDS011;3044;43.232;27.972;2023-05-06T13:38:54;8.10;;;3.67;;
6031;SDS011;3044;43.232;27.972;2023-05-06T13:41:21;6.90;;;4.17;;
6031;SDS011;3044;43.232;27.972;2023-05-06T13:43:49;10.50;;;3.33;;
6031;SDS011;3044;43.232;27.972;2023-05-06T13:46:18;14.83;;;4.30;;
6031;SDS011;3044;43.232;27.972;2023-05-06T13:48:45;5.40;;;3.80;;
6031;SDS011;3044;43.232;27.972;2023-05-06T13:51:12;13.93;;;4.43;;
6031;SDS011;3044;43.232;27.972;2023-05-06T13:53:39;4.10;;;3.70;;
6031;SDS011;3044;43.232;27.972;2023-05-06T13:56:06;8.77;;;4.10;;
6031;SDS011;3044;43.232;27.972;2023-05-06T13:58:34;7.17;;;3.90;;
6031;SDS011;3044;43.232;27.972;2023-05-06T14:01:01;11.40;;;4.37;;
6031;SDS011;3044;43.232;27.972;2023-05-06T14:03:30;6.57;;;3.60;;
6031;SDS011;3044;43.232;27.972;2023-05-06T14:05:57;8.80;;;3.43;;
6031;SDS011;3044;43.232;27.972;2023-05-06T14:08:25;7.33;;;3.00;;
6031;SDS011;3044;43.232;27.972;2023-05-06T14:10:52;9.77;;;3.83;;
6031;SDS011;3044;43.232;27.972;2023-05-06T14:13:19;8.30;;;3.30;;
6031;SDS011;3044;43.232;27.972;2023-05-06T14:15:46;7.73;;;3.40;;
6031;SDS011;3044;43.232;27.972;2023-05-06T14:18:13;7.13;;;3.83;;
6031;SDS011;3044;43.232;27.972;2023-05-06T14:20:42;8.90;;;3.50;;
6031;SDS011;3044;43.232;27.972;2023-05-06T14:23:09;4.03;;;3.40;;
6031;SDS011;3044;43.232;27.972;2023-05-06T14:25:36;10.53;;;4.00;;
6031;SDS011;3044;43.232;27.972;2023-05-06T14:28:04;7.53;;;4.10;;
6031;SDS011;3044;43.232;27.972;2023-05-06T14:30:31;7.60;;;3.77;;
6031;SDS011;3044;43.232;27.972;2023-05-06T14:32:58;4.43;;;4.00;;
6031;SDS011;3044;43.232;27.972;2023-05-06T14:35:26;7.80;;;4.53;;
6031;SDS011;3044;43.232;27.972;2023-05-06T14:37:54;8.83;;;4.40;;
6031;SDS011;3044;43.232;27.972;2023-05-06T14:40:21;5.43;;;4.10;;
6031;SDS011;3044;43.232;27.972;2023-05-06T14:42:49;4.10;;;3.63;;
6031;SDS011;3044;43.232;27.972;2023-05-06T14:45:17;8.00;;;3.97;;
6031;SDS011;3044;43.232;27.972;2023-05-06T14:47:45;9.47;;;4.17;;
6031;SDS011;3044;43.232;27.972;2023-05-06T14:50:12;7.10;;;3.63;;
6031;SDS011;3044;43.232;27.972;2023-05-06T14:52:39;7.70;;;3.80;;
6031;SDS011;3044;43.232;27.972;2023-05-06T14:55:08;12.47;;;4.20;;
6031;SDS011;3044;43.232;27.972;2023-05-06T14:57:36;7.13;;;4.30;;
6031;SDS011;3044;43.232;27.972;2023-05-06T15:00:04;11.07;;;4.50;;
6031;SDS011;3044;43.232;27.972;2023-05-06T15:02:34;12.37;;;4.67;;
6031;SDS011;3044;43.232;27.972;2023-05-06T15:05:01;7.70;;;4.23;;
6031;SDS011;3044;43.232;27.972;2023-05-06T15:07:28;16.07;;;4.30;;
6031;SDS011;3044;43.232;27.972;2023-05-06T15:09:56;8.33;;;4.73;;
6031;SDS011;3044;43.232;27.972;2023-05-06T15:12:24;12.57;;;5.00;;
6031;SDS011;3044;43.232;27.972;2023-05-06T15:14:51;7.43;;;4.70;;